Panama City, FL

7:40 AM CDT on August 28, 2016 (GMT -0500)
Panama City Tyndall AFB | | Change Station

Elev 16 ft 30.07 °N, 85.58 °W | Updated 44 minutes ago

Mostly Cloudy
Mostly Cloudy
77 °F
Feels Like 77 °F
N
6
Wind Variable Wind from ENE

Today
High -- | Low -- °F
--% Chance of Precip.
Yesterday
High -- | Low -- °F
Precip. -- in
Pressure 30.03 in
Visibility 10.0 miles
Clouds Mostly Cloudy 700 ft
Mostly Cloudy 8500 ft
Dew Point 74 °F
Humidity 92%
Rainfall 0.00 in
Snow Depth Not available.
6:17 AM 7:08 PM
Waning Crescent, 16% visible
METAR KPAM 281156Z AUTO 07005KT 10SM BKN007 BKN085 25/24 A3002 RMK AO2 CIG 007V085 BKN007 V SCT SLP169 T02490235 10263 20248 53013 $
Pressure 30.03 in
Visibility 10.0 miles
Clouds Mostly Cloudy 700 ft
Mostly Cloudy 8500 ft
Dew Point 74 °F
Humidity 92%
Rainfall 0.00 in
Snow Depth Not available.
6:17 AM 7:08 PM
Waning Crescent, 16% visible
METAR KPAM 281156Z AUTO 07005KT 10SM BKN007 BKN085 25/24 A3002 RMK AO2 CIG 007V085 BKN007 V SCT SLP169 T02490235 10263 20248 53013 $

10-Day Weather Forecast

Almanac

Astronomy

Aug. 28, 2016 Rise Set
Actual Time
Civil Twilight
Nautical Twilight
Astronomical Twilight
Moon
Length of Visible Light
Length of Day
Tomorrow will be .
, % of the Moon is Illuminated

Today's Extremes

State Highs State Lows

Community

WunderPhotos

Upload Photos

1,935,557 photos uploaded!

WunderBlog® & News

Nearby

Air Quality

  Air Quality AQ Index Pollutant
Not available.

Snow Depth

Station Depth Elevation

Earthquake Activity

City Distance Mag. Time & Date
Minimum magnitude displayed is 2.5.

Coastal Water Temperatures

Place Temperature

Stations

Nearby Weather Stations

Station Location Temp. Windchill Dew Point Humidity Wind Precip. Elev Updated Type
                   

Watches & Warnings

There are currently no watches in effect.